createdAt,value
2018-07-31T00:01:28.510Z,99.90
2018-07-31T00:03:33.530Z,99.90
2018-07-31T00:05:39.558Z,99.90
2018-07-31T00:07:46.823Z,99.90
2018-07-31T00:09:55.047Z,99.90
2018-07-31T00:12:01.790Z,99.90
2018-07-31T00:14:08.339Z,99.90
2018-07-31T00:16:15.339Z,99.90
2018-07-31T00:18:20.319Z,99.90
2018-07-31T00:20:27.149Z,99.90
2018-07-31T00:22:33.294Z,99.90
2018-07-31T00:24:38.266Z,99.90
2018-07-31T00:26:44.791Z,99.90
2018-07-31T00:28:53.145Z,99.90
2018-07-31T00:30:58.135Z,99.90
2018-07-31T00:33:05.245Z,99.90
2018-07-31T00:35:12.197Z,99.90
2018-07-31T00:37:19.538Z,99.90
2018-07-31T00:39:24.505Z,99.90
2018-07-31T00:41:30.025Z,99.90
2018-07-31T00:43:34.998Z,99.90
2018-07-31T00:45:40.570Z,99.90
2018-07-31T00:47:45.531Z,99.90
2018-07-31T00:49:53.940Z,99.90
2018-07-31T00:51:59.087Z,99.90
2018-07-31T00:54:04.284Z,99.90
2018-07-31T00:56:09.272Z,99.90
2018-07-31T00:58:14.591Z,99.90
2018-07-31T01:00:19.552Z,99.90
2018-07-31T01:02:24.653Z,99.90
2018-07-31T01:04:29.621Z,99.90
2018-07-31T01:06:39.838Z,99.90
2018-07-31T01:08:44.757Z,99.90
2018-07-31T01:10:49.776Z,99.90
2018-07-31T01:12:54.774Z,99.90
2018-07-31T01:15:00.478Z,99.90
2018-07-31T01:17:05.490Z,99.90
2018-07-31T01:19:11.644Z,99.90
2018-07-31T01:21:16.606Z,99.90
2018-07-31T01:23:21.793Z,99.90
2018-07-31T01:25:26.933Z,99.90
2018-07-31T01:27:31.878Z,99.90
2018-07-31T01:29:36.788Z,99.90
2018-07-31T01:31:41.778Z,99.90
2018-07-31T01:33:46.805Z,99.90
2018-07-31T01:35:51.727Z,99.90
2018-07-31T01:37:57.115Z,99.90
2018-07-31T01:40:02.162Z,99.90
2018-07-31T01:42:06.970Z,99.90
2018-07-31T01:44:11.977Z,99.90
2018-07-31T01:46:17.940Z,99.90
2018-07-31T01:48:23.139Z,99.90
2018-07-31T01:50:28.131Z,99.90
2018-07-31T01:52:33.098Z,99.90
2018-07-31T01:54:38.054Z,99.90
2018-07-31T01:56:43.103Z,99.90
2018-07-31T01:58:48.126Z,99.90
2018-07-31T02:00:53.030Z,99.90
2018-07-31T02:02:58.042Z,99.90
2018-07-31T02:05:03.042Z,99.90
2018-07-31T02:07:08.001Z,99.90
2018-07-31T02:09:13.099Z,99.90
2018-07-31T02:11:18.420Z,99.90
2018-07-31T02:13:23.479Z,99.90
2018-07-31T02:15:28.430Z,99.90
2018-07-31T02:17:33.369Z,99.90
2018-07-31T02:19:38.290Z,99.90
2018-07-31T02:21:43.286Z,99.90
2018-07-31T02:23:48.223Z,99.90
2018-07-31T02:25:53.141Z,99.90
2018-07-31T02:27:58.232Z,99.90
2018-07-31T02:30:09.830Z,99.90
2018-07-31T02:32:15.219Z,99.90
2018-07-31T02:36:25.257Z,99.90
2018-07-31T02:38:30.394Z,99.90
2018-07-31T02:40:35.438Z,99.90
2018-07-31T02:42:40.498Z,99.90
2018-07-31T02:44:45.437Z,99.90
2018-07-31T02:46:50.433Z,99.90
2018-07-31T02:48:55.330Z,99.90
2018-07-31T02:51:00.413Z,99.90
2018-07-31T02:53:05.425Z,99.90
2018-07-31T02:55:11.401Z,99.90
2018-07-31T02:57:16.406Z,99.90
2018-07-31T02:59:21.348Z,99.90
2018-07-31T03:01:26.284Z,99.90
2018-07-31T03:03:31.256Z,99.90
2018-07-31T03:05:36.230Z,99.90
2018-07-31T03:07:41.326Z,99.90
2018-07-31T03:09:46.263Z,99.90
2018-07-31T03:11:51.247Z,99.90
2018-07-31T03:13:56.227Z,99.90
2018-07-31T03:16:01.172Z,99.90
2018-07-31T03:18:06.202Z,99.90
2018-07-31T03:22:15.537Z,99.90
2018-07-31T03:24:20.819Z,99.90
2018-07-31T03:26:25.755Z,99.90
2018-07-31T03:28:30.702Z,99.90
2018-07-31T03:30:35.792Z,99.90
2018-07-31T03:32:40.758Z,99.90
2018-07-31T03:34:45.729Z,99.90
2018-07-31T03:36:50.724Z,99.90
2018-07-31T03:38:55.790Z,99.90
2018-07-31T03:41:00.811Z,99.90
2018-07-31T03:43:06.094Z,99.90
2018-07-31T03:45:11.066Z,99.90
2018-07-31T03:47:15.975Z,99.90
2018-07-31T03:49:20.998Z,99.90
2018-07-31T03:51:26.229Z,99.90
2018-07-31T03:53:31.119Z,99.90
2018-07-31T03:55:36.156Z,99.90
2018-07-31T03:57:41.063Z,99.90
2018-07-31T03:59:46.047Z,99.90
2018-07-31T04:01:51.136Z,99.90
2018-07-31T04:03:56.251Z,99.90
2018-07-31T04:06:01.302Z,99.90
2018-07-31T04:08:06.238Z,99.90
2018-07-31T04:10:11.192Z,99.90
2018-07-31T04:12:16.156Z,99.90
2018-07-31T04:14:21.165Z,99.90
2018-07-31T04:16:26.488Z,99.90
2018-07-31T04:18:31.438Z,99.90
2018-07-31T04:20:36.361Z,99.90
2018-07-31T04:22:41.303Z,99.90
2018-07-31T04:24:46.258Z,99.90
2018-07-31T04:26:51.306Z,99.90
2018-07-31T04:28:56.231Z,99.90
2018-07-31T04:33:05.454Z,99.90
2018-07-31T04:35:10.758Z,99.90
2018-07-31T04:37:15.771Z,99.90
2018-07-31T04:39:20.750Z,99.90
2018-07-31T04:41:25.741Z,99.90
2018-07-31T04:43:30.779Z,99.90
2018-07-31T04:45:35.788Z,99.90
2018-07-31T04:47:41.048Z,99.90
2018-07-31T04:49:45.996Z,99.90
2018-07-31T04:51:51.008Z,99.90
2018-07-31T04:53:55.966Z,99.90
2018-07-31T04:56:00.952Z,99.90
2018-07-31T04:58:06.037Z,99.90
2018-07-31T05:00:12.013Z,99.90
2018-07-31T05:02:17.943Z,99.90
2018-07-31T05:04:22.937Z,99.90
2018-07-31T05:06:28.535Z,99.90
2018-07-31T05:08:33.745Z,99.90
2018-07-31T05:10:38.709Z,99.90
2018-07-31T05:12:44.574Z,99.90
2018-07-31T05:14:49.502Z,99.90
2018-07-31T05:16:54.511Z,99.90
2018-07-31T05:18:59.455Z,99.90
2018-07-31T05:21:04.452Z,99.90
2018-07-31T05:23:09.429Z,99.90
2018-07-31T05:25:14.462Z,99.90
2018-07-31T05:27:19.483Z,99.90
2018-07-31T05:29:24.456Z,99.90
2018-07-31T05:31:29.440Z,99.90
2018-07-31T05:33:34.367Z,99.90
2018-07-31T05:35:39.405Z,99.90
2018-07-31T05:37:44.326Z,99.90
2018-07-31T05:39:49.280Z,99.90
2018-07-31T05:41:54.233Z,99.90
2018-07-31T05:43:59.209Z,99.90
2018-07-31T05:46:04.212Z,99.90
2018-07-31T05:48:09.139Z,99.90
2018-07-31T05:50:14.094Z,99.90
2018-07-31T05:52:19.103Z,99.90
2018-07-31T05:54:24.098Z,99.90
2018-07-31T05:56:29.037Z,99.90
2018-07-31T06:00:38.703Z,99.90
2018-07-31T06:02:43.742Z,99.90
2018-07-31T06:04:48.750Z,99.90
2018-07-31T06:06:53.767Z,99.90
2018-07-31T06:08:58.773Z,99.90
2018-07-31T06:11:03.762Z,99.90
2018-07-31T06:13:08.730Z,99.90
2018-07-31T06:15:13.773Z,99.90
2018-07-31T06:19:23.189Z,99.90
2018-07-31T06:21:28.172Z,99.90
2018-07-31T06:23:33.142Z,99.90
2018-07-31T06:25:38.160Z,99.90
2018-07-31T06:27:43.474Z,99.90
2018-07-31T06:29:48.411Z,99.90
2018-07-31T06:31:53.429Z,99.90
2018-07-31T06:33:58.383Z,99.90
2018-07-31T06:36:03.338Z,99.90
2018-07-31T06:38:08.277Z,99.90
2018-07-31T06:42:17.630Z,99.90
2018-07-31T06:44:22.557Z,99.90
2018-07-31T06:46:27.565Z,99.90
2018-07-31T06:48:32.598Z,99.90
2018-07-31T06:50:37.525Z,99.90
2018-07-31T06:52:42.841Z,99.90
2018-07-31T06:54:47.678Z,99.90
2018-07-31T06:56:52.617Z,99.90
2018-07-31T06:58:57.677Z,99.90
2018-07-31T07:01:02.802Z,99.90
2018-07-31T07:03:07.853Z,99.90
2018-07-31T07:05:12.957Z,99.90
2018-07-31T07:07:17.950Z,99.90
2018-07-31T07:09:23.016Z,99.90
2018-07-31T07:11:28.022Z,99.90
2018-07-31T07:13:33.211Z,99.90
2018-07-31T07:15:38.172Z,99.90
2018-07-31T07:17:43.164Z,99.90
2018-07-31T07:19:48.145Z,99.90
2018-07-31T07:21:53.162Z,99.90
2018-07-31T07:23:58.136Z,99.90
2018-07-31T07:26:03.093Z,99.90
2018-07-31T07:28:08.167Z,99.90
2018-07-31T07:30:13.112Z,99.90
2018-07-31T07:32:18.079Z,99.90
2018-07-31T07:34:23.137Z,99.90
2018-07-31T07:36:28.208Z,99.90
2018-07-31T07:38:33.117Z,99.90
2018-07-31T07:40:38.066Z,99.90
2018-07-31T07:42:43.015Z,99.90
2018-07-31T07:44:47.953Z,99.90
2018-07-31T07:46:52.947Z,99.90
2018-07-31T07:48:58.026Z,99.90
2018-07-31T07:51:03.013Z,99.90
2018-07-31T07:53:07.940Z,99.90
2018-07-31T07:55:13.114Z,99.90
2018-07-31T07:57:30.044Z,99.90
2018-07-31T07:59:49.878Z,99.90
2018-07-31T08:01:55.957Z,99.90
2018-07-31T08:04:26.289Z,99.90
2018-07-31T08:06:57.269Z,99.90
2018-07-31T08:09:30.768Z,99.90
2018-07-31T08:12:00.821Z,99.90
2018-07-31T08:14:27.924Z,99.90
2018-07-31T08:16:57.950Z,99.90
2018-07-31T08:19:08.067Z,99.90
2018-07-31T08:21:42.411Z,99.90
2018-07-31T08:24:07.123Z,99.90
2018-07-31T08:26:31.350Z,99.90
2018-07-31T08:28:58.957Z,99.90
2018-07-31T08:31:28.510Z,99.90
2018-07-31T08:33:54.856Z,99.90
2018-07-31T08:36:21.059Z,99.90
2018-07-31T08:38:53.053Z,99.90
2018-07-31T08:41:05.648Z,99.90
2018-07-31T08:43:28.291Z,99.90
2018-07-31T08:45:41.779Z,99.90
2018-07-31T08:48:07.687Z,99.90
2018-07-31T08:50:19.014Z,99.90
2018-07-31T08:52:47.247Z,99.90
2018-07-31T08:55:10.793Z,99.90
2018-07-31T08:57:42.748Z,99.90
2018-07-31T09:00:10.419Z,99.90
2018-07-31T09:02:41.079Z,99.90
2018-07-31T09:05:09.337Z,99.90
2018-07-31T09:07:38.641Z,99.90
2018-07-31T09:10:09.308Z,99.90
2018-07-31T09:12:37.858Z,99.90
2018-07-31T09:15:08.409Z,99.90
2018-07-31T09:17:34.514Z,99.90
2018-07-31T09:22:30.129Z,99.90
2018-07-31T09:25:06.213Z,99.90
2018-07-31T09:27:33.437Z,99.90
2018-07-31T09:29:59.237Z,99.90
2018-07-31T09:32:28.895Z,99.90
2018-07-31T09:34:57.885Z,99.90
2018-07-31T09:37:29.541Z,99.90
2018-07-31T09:39:59.686Z,99.90
2018-07-31T09:42:28.004Z,99.90
2018-07-31T09:44:57.597Z,99.90
2018-07-31T09:47:25.713Z,99.90
2018-07-31T09:49:55.966Z,99.90
2018-07-31T09:52:28.630Z,99.90
2018-07-31T09:54:59.866Z,99.90
2018-07-31T09:57:30.168Z,99.90
2018-07-31T09:59:57.994Z,99.90
2018-07-31T10:02:25.695Z,99.90
2018-07-31T10:04:52.534Z,99.90
2018-07-31T10:07:20.846Z,99.90
2018-07-31T10:09:46.255Z,99.90
2018-07-31T10:12:16.408Z,99.90
2018-07-31T10:14:47.454Z,99.90
2018-07-31T10:17:10.326Z,99.90
2018-07-31T10:19:40.254Z,99.90
2018-07-31T10:22:09.951Z,99.90
2018-07-31T10:24:35.606Z,99.90
2018-07-31T10:27:07.157Z,99.90
2018-07-31T10:29:32.057Z,99.90
2018-07-31T10:32:02.025Z,99.90
2018-07-31T10:34:31.236Z,99.90
2018-07-31T10:36:59.558Z,99.90
2018-07-31T10:39:22.077Z,99.90
2018-07-31T10:41:46.451Z,99.90
2018-07-31T10:44:09.857Z,99.90
2018-07-31T10:46:28.973Z,99.90
2018-07-31T10:48:55.204Z,99.90
2018-07-31T10:51:21.724Z,99.90
2018-07-31T10:53:40.805Z,99.90
2018-07-31T10:56:03.091Z,99.90
2018-07-31T10:58:27.731Z,99.90
2018-07-31T11:00:43.414Z,99.90
2018-07-31T11:03:08.249Z,99.90
2018-07-31T11:05:29.058Z,99.90
2018-07-31T11:07:52.693Z,99.90
2018-07-31T11:12:12.327Z,99.90
2018-07-31T11:14:19.166Z,99.90
2018-07-31T11:16:26.127Z,99.90
2018-07-31T11:18:34.385Z,99.90
2018-07-31T11:20:41.380Z,99.90
2018-07-31T11:22:48.748Z,99.90
2018-07-31T11:24:56.253Z,99.90
2018-07-31T11:27:04.580Z,99.90
2018-07-31T11:29:11.403Z,99.90
2018-07-31T11:31:17.912Z,99.90
2018-07-31T11:33:23.118Z,99.90
2018-07-31T11:37:33.246Z,99.80
2018-07-31T11:39:38.268Z,99.90
2018-07-31T11:41:43.220Z,99.90
2018-07-31T11:43:48.202Z,99.40
2018-07-31T11:45:53.491Z,99.90
2018-07-31T11:47:58.388Z,99.90
2018-07-31T11:50:03.636Z,99.90
2018-07-31T11:52:08.581Z,99.90
2018-07-31T11:54:13.838Z,99.90
2018-07-31T11:56:18.807Z,99.70
2018-07-31T11:58:24.130Z,99.90
2018-07-31T12:00:29.075Z,99.00
2018-07-31T12:02:34.097Z,98.50
2018-07-31T12:04:39.187Z,99.00
2018-07-31T12:06:44.180Z,99.20
2018-07-31T12:08:49.146Z,98.40
2018-07-31T12:10:54.074Z,99.90
2018-07-31T12:12:59.003Z,99.90
2018-07-31T12:15:04.066Z,97.80
2018-07-31T12:17:08.980Z,99.20
2018-07-31T12:19:14.020Z,99.20
2018-07-31T12:21:19.091Z,99.40
2018-07-31T12:23:24.830Z,98.00
2018-07-31T12:25:29.886Z,98.20
2018-07-31T12:27:34.869Z,97.80
2018-07-31T12:29:40.017Z,97.10
2018-07-31T12:31:45.018Z,96.90
2018-07-31T12:33:50.058Z,96.20
2018-07-31T12:35:55.662Z,95.80
2018-07-31T12:38:00.830Z,96.50
2018-07-31T12:40:07.385Z,97.00
2018-07-31T12:42:12.291Z,97.10
2018-07-31T12:44:17.221Z,99.30
2018-07-31T12:46:22.202Z,99.50
2018-07-31T12:48:27.155Z,99.90
2018-07-31T12:50:32.178Z,99.90
2018-07-31T12:52:37.122Z,99.90
2018-07-31T12:54:42.029Z,99.90
2018-07-31T12:56:53.213Z,99.90
2018-07-31T12:58:59.790Z,99.90
2018-07-31T13:01:04.712Z,99.90
2018-07-31T13:03:09.622Z,99.90
2018-07-31T13:05:14.949Z,99.90
2018-07-31T13:07:20.244Z,99.90
2018-07-31T13:09:25.216Z,99.90
2018-07-31T13:11:30.174Z,99.50
2018-07-31T13:13:36.327Z,99.10
2018-07-31T13:15:41.751Z,99.60
2018-07-31T13:17:47.411Z,99.90
2018-07-31T13:19:52.485Z,99.90
2018-07-31T13:21:57.786Z,99.90
2018-07-31T13:24:05.865Z,99.90
2018-07-31T13:26:12.249Z,99.90
2018-07-31T13:28:18.534Z,99.90
2018-07-31T13:30:23.848Z,99.90
2018-07-31T13:32:29.034Z,99.90
2018-07-31T13:34:34.541Z,99.90
2018-07-31T13:36:39.543Z,99.90
2018-07-31T13:38:46.048Z,99.90
2018-07-31T13:40:51.219Z,99.90
2018-07-31T13:42:56.701Z,99.90
2018-07-31T13:45:02.277Z,99.90
2018-07-31T13:47:08.514Z,99.90
2018-07-31T13:49:13.502Z,99.90
2018-07-31T13:51:18.385Z,99.90
2018-07-31T13:53:24.009Z,99.90
2018-07-31T13:55:32.532Z,99.90
2018-07-31T13:57:39.039Z,99.90
2018-07-31T13:59:44.305Z,99.90
2018-07-31T14:01:49.311Z,99.90
2018-07-31T14:03:54.499Z,99.90
2018-07-31T14:05:59.437Z,99.90
2018-07-31T14:08:05.246Z,99.90
2018-07-31T14:10:10.276Z,99.90
2018-07-31T14:12:16.049Z,99.90
2018-07-31T14:14:21.738Z,99.90
2018-07-31T14:16:27.033Z,99.90
2018-07-31T14:18:32.804Z,99.90
2018-07-31T14:20:37.825Z,99.90
2018-07-31T14:22:43.298Z,99.90
2018-07-31T14:24:48.466Z,99.90
2018-07-31T14:28:59.362Z,99.90
2018-07-31T14:31:07.902Z,99.90
2018-07-31T14:33:13.070Z,99.90
2018-07-31T14:35:18.037Z,99.90
2018-07-31T14:37:23.018Z,99.90
2018-07-31T14:39:28.017Z,99.90
2018-07-31T14:41:32.963Z,99.90
2018-07-31T14:43:38.931Z,99.90
2018-07-31T14:45:44.367Z,99.90
2018-07-31T14:47:49.255Z,99.90
2018-07-31T14:49:54.157Z,99.90
2018-07-31T14:51:59.606Z,99.90
2018-07-31T14:54:04.467Z,99.90
2018-07-31T14:56:09.464Z,99.90
2018-07-31T14:58:14.543Z,99.90
2018-07-31T15:00:19.504Z,99.90
2018-07-31T15:02:24.469Z,99.90
2018-07-31T15:04:29.395Z,99.00
2018-07-31T15:06:34.331Z,99.00
2018-07-31T15:08:40.131Z,99.90
2018-07-31T15:10:45.088Z,98.70
2018-07-31T15:12:50.053Z,99.00
2018-07-31T15:14:55.045Z,98.20
2018-07-31T15:17:00.042Z,98.40
2018-07-31T15:19:05.098Z,99.80
2018-07-31T15:21:10.074Z,99.80
2018-07-31T15:23:15.070Z,99.80
2018-07-31T15:25:20.057Z,98.50
2018-07-31T15:27:25.150Z,99.60
2018-07-31T15:29:30.188Z,99.60
2018-07-31T15:31:35.227Z,98.50
2018-07-31T15:33:40.160Z,97.00
2018-07-31T15:35:45.155Z,97.30
2018-07-31T15:37:50.110Z,97.40
2018-07-31T15:39:55.015Z,98.20
2018-07-31T15:41:59.998Z,97.40
2018-07-31T15:44:05.114Z,95.70
2018-07-31T15:46:10.105Z,97.10
2018-07-31T15:48:15.203Z,96.70
2018-07-31T15:50:20.141Z,95.80
2018-07-31T15:52:25.086Z,94.30
2018-07-31T15:54:30.015Z,96.00
2018-07-31T15:56:35.002Z,95.40
2018-07-31T15:58:40.201Z,93.00
2018-07-31T16:00:45.278Z,95.20
2018-07-31T16:02:50.209Z,92.40
2018-07-31T16:04:55.168Z,91.40
2018-07-31T16:09:06.270Z,93.90
2018-07-31T16:11:11.190Z,93.30
2018-07-31T16:13:16.263Z,94.20
2018-07-31T16:15:21.167Z,89.90
2018-07-31T16:17:26.095Z,92.60
2018-07-31T16:19:31.134Z,91.80
2018-07-31T16:21:36.122Z,89.80
2018-07-31T16:23:41.097Z,89.60
2018-07-31T16:25:46.075Z,89.30
2018-07-31T16:27:51.032Z,88.30
2018-07-31T16:29:55.939Z,92.70
2018-07-31T16:32:01.255Z,87.70
2018-07-31T16:34:06.437Z,92.10
2018-07-31T16:38:15.666Z,93.20
2018-07-31T16:40:20.570Z,93.40
2018-07-31T16:42:25.903Z,91.00
2018-07-31T16:44:30.811Z,89.30
2018-07-31T16:46:35.958Z,91.40
2018-07-31T16:48:40.903Z,90.10
2018-07-31T16:50:45.844Z,91.00
2018-07-31T16:52:50.789Z,90.50
2018-07-31T16:54:55.718Z,92.00
2018-07-31T16:57:00.712Z,89.70
2018-07-31T16:59:05.712Z,90.60
2018-07-31T17:01:12.617Z,92.80
2018-07-31T17:03:25.727Z,86.70
2018-07-31T17:05:39.559Z,84.80
2018-07-31T17:07:50.719Z,84.60
2018-07-31T17:09:59.720Z,85.90
2018-07-31T17:12:10.259Z,87.20
2018-07-31T17:14:20.521Z,88.30
2018-07-31T17:16:29.864Z,90.70
2018-07-31T17:18:35.430Z,86.90
2018-07-31T17:20:40.399Z,92.00
2018-07-31T17:22:45.339Z,92.50
2018-07-31T17:24:50.378Z,91.60
2018-07-31T17:26:55.362Z,87.00
2018-07-31T17:29:00.545Z,89.60
2018-07-31T17:31:05.620Z,91.00
2018-07-31T17:33:10.623Z,87.50
2018-07-31T17:35:15.707Z,91.40
2018-07-31T17:37:20.871Z,88.10
2018-07-31T17:39:25.826Z,90.10
2018-07-31T17:41:30.763Z,90.30
2018-07-31T17:43:35.727Z,90.30
2018-07-31T17:45:40.733Z,92.50
2018-07-31T17:47:45.775Z,92.50
2018-07-31T17:49:50.731Z,92.70
2018-07-31T17:51:55.701Z,91.60
2018-07-31T17:54:00.711Z,92.90
2018-07-31T17:56:05.663Z,93.10
2018-07-31T17:58:10.727Z,92.90
2018-07-31T18:00:15.714Z,93.00
2018-07-31T18:02:20.734Z,93.60
2018-07-31T18:04:25.806Z,94.00
2018-07-31T18:06:30.722Z,93.90
2018-07-31T18:08:35.717Z,94.10
2018-07-31T18:10:40.685Z,93.70
2018-07-31T18:12:45.677Z,93.80
2018-07-31T18:14:50.743Z,93.80
2018-07-31T18:16:55.698Z,93.90
2018-07-31T18:19:00.653Z,94.20
2018-07-31T18:21:05.606Z,94.40
2018-07-31T18:23:10.528Z,94.30
2018-07-31T18:25:15.581Z,95.00
2018-07-31T18:27:20.595Z,94.70
2018-07-31T18:29:25.605Z,94.60
2018-07-31T18:31:30.598Z,94.60
2018-07-31T18:33:35.615Z,94.80
2018-07-31T18:35:40.592Z,94.80
2018-07-31T18:37:45.517Z,94.80
2018-07-31T18:39:50.498Z,94.30
2018-07-31T18:41:55.477Z,94.90
2018-07-31T18:44:00.503Z,94.90
2018-07-31T18:46:05.584Z,95.20
2018-07-31T18:48:10.557Z,95.10
2018-07-31T18:50:15.513Z,94.90
2018-07-31T18:52:20.495Z,94.60
2018-07-31T18:54:25.502Z,95.20
2018-07-31T18:56:30.414Z,95.20
2018-07-31T18:58:35.313Z,95.20
2018-07-31T19:00:40.230Z,95.10
2018-07-31T19:02:45.760Z,95.10
2018-07-31T19:04:50.687Z,94.90
2018-07-31T19:06:55.679Z,94.40
2018-07-31T19:09:00.753Z,95.00
2018-07-31T19:11:05.751Z,95.00
2018-07-31T19:13:10.759Z,95.30
2018-07-31T19:15:15.673Z,94.80
2018-07-31T19:17:20.665Z,95.10
2018-07-31T19:21:30.002Z,95.10
2018-07-31T19:23:34.944Z,94.70
2018-07-31T19:25:39.913Z,95.20
2018-07-31T19:27:45.090Z,95.10
2018-07-31T19:29:49.920Z,95.00
2018-07-31T19:31:55.962Z,95.00
2018-07-31T19:34:02.392Z,95.40
2018-07-31T19:36:08.459Z,95.40
2018-07-31T19:38:14.517Z,95.30
2018-07-31T19:40:20.636Z,95.40
2018-07-31T19:42:26.699Z,95.40
2018-07-31T19:44:32.736Z,95.20
2018-07-31T19:46:39.640Z,95.50
2018-07-31T19:48:46.293Z,95.60
2018-07-31T19:51:07.029Z,95.80
2018-07-31T19:53:32.892Z,95.70
2018-07-31T19:55:49.380Z,95.40
2018-07-31T19:58:08.806Z,95.20
2018-07-31T20:00:17.980Z,95.60
2018-07-31T20:02:24.108Z,96.20
2018-07-31T20:04:30.309Z,96.30
2018-07-31T20:06:35.308Z,96.90
2018-07-31T20:08:40.266Z,96.90
2018-07-31T20:10:45.319Z,96.60
2018-07-31T20:12:50.281Z,96.60
2018-07-31T20:14:55.286Z,97.20
2018-07-31T20:17:00.294Z,97.80
2018-07-31T20:19:05.225Z,98.90
2018-07-31T20:21:10.215Z,98.50
2018-07-31T20:23:15.139Z,98.00
2018-07-31T20:25:20.137Z,97.80
2018-07-31T20:27:25.164Z,98.30
2018-07-31T20:29:30.128Z,98.20
2018-07-31T20:31:35.133Z,97.80
2018-07-31T20:33:40.142Z,98.10
2018-07-31T20:35:45.137Z,98.30
2018-07-31T20:37:51.095Z,98.40
2018-07-31T20:39:55.998Z,98.30
2018-07-31T20:42:02.242Z,98.20
2018-07-31T20:44:09.251Z,98.20
2018-07-31T20:46:15.209Z,98.10
2018-07-31T20:48:20.591Z,98.10
2018-07-31T20:52:30.099Z,98.10
2018-07-31T20:54:35.203Z,98.50
2018-07-31T20:56:40.179Z,98.70
2018-07-31T20:58:45.135Z,99.00
2018-07-31T21:00:50.092Z,99.10
2018-07-31T21:04:59.873Z,98.60
2018-07-31T21:07:08.607Z,98.40
2018-07-31T21:09:21.122Z,98.60
2018-07-31T21:11:28.267Z,99.00
2018-07-31T21:13:33.272Z,98.00
2018-07-31T21:15:38.245Z,98.20
2018-07-31T21:17:44.661Z,98.30
2018-07-31T21:19:49.595Z,98.40
2018-07-31T21:21:54.603Z,98.60
2018-07-31T21:24:00.270Z,98.60
2018-07-31T21:26:07.548Z,98.60
2018-07-31T21:28:15.558Z,98.90
2018-07-31T21:30:22.505Z,99.30
2018-07-31T21:32:27.546Z,98.90
2018-07-31T21:34:34.066Z,99.60
2018-07-31T21:36:39.080Z,99.90
2018-07-31T21:38:45.193Z,99.90
2018-07-31T21:40:54.017Z,99.90
2018-07-31T21:43:00.492Z,99.90
2018-07-31T21:45:07.804Z,99.10
2018-07-31T21:47:13.175Z,99.80
2018-07-31T21:49:18.453Z,99.30
2018-07-31T21:51:23.555Z,99.60
2018-07-31T21:53:29.959Z,98.50
2018-07-31T21:55:35.842Z,99.20
2018-07-31T21:57:40.778Z,99.40
2018-07-31T21:59:45.806Z,98.50
2018-07-31T22:01:52.997Z,98.80
2018-07-31T22:03:59.862Z,99.10
2018-07-31T22:06:07.915Z,99.90
2018-07-31T22:08:16.083Z,99.90
2018-07-31T22:10:23.488Z,99.90
2018-07-31T22:12:28.653Z,99.90
2018-07-31T22:14:33.666Z,99.90
2018-07-31T22:16:38.646Z,99.90
2018-07-31T22:18:43.564Z,99.90
2018-07-31T22:20:48.505Z,99.90
2018-07-31T22:22:53.982Z,99.90
2018-07-31T22:27:03.413Z,99.90
2018-07-31T22:29:08.971Z,99.90
2018-07-31T22:31:14.145Z,99.90
2018-07-31T22:33:19.042Z,99.90
2018-07-31T22:35:24.034Z,99.90
2018-07-31T22:37:28.899Z,99.90
2018-07-31T22:39:33.787Z,99.90
2018-07-31T22:41:38.702Z,99.90
2018-07-31T22:43:43.680Z,99.90
2018-07-31T22:45:48.740Z,99.90
2018-07-31T22:47:53.871Z,99.90
2018-07-31T22:49:58.878Z,99.90
2018-07-31T22:52:03.816Z,99.90
2018-07-31T22:54:08.788Z,99.90
2018-07-31T22:56:13.746Z,99.90
2018-07-31T22:58:18.665Z,99.90
2018-07-31T23:00:23.624Z,99.90
2018-07-31T23:04:32.874Z,99.90
2018-07-31T23:06:37.861Z,99.90
2018-07-31T23:08:42.793Z,99.90
2018-07-31T23:10:47.724Z,99.90
2018-07-31T23:12:52.686Z,99.90
2018-07-31T23:14:58.309Z,99.90
2018-07-31T23:17:03.320Z,99.90
2018-07-31T23:19:08.328Z,99.90
2018-07-31T23:21:13.323Z,99.90
2018-07-31T23:23:18.363Z,99.90
2018-07-31T23:25:23.272Z,99.90
2018-07-31T23:27:28.313Z,99.90
2018-07-31T23:29:33.367Z,99.90
2018-07-31T23:31:38.401Z,99.90
2018-07-31T23:33:43.349Z,99.90
2018-07-31T23:35:48.287Z,99.90
2018-07-31T23:37:53.284Z,99.90
2018-07-31T23:39:58.529Z,99.90
2018-07-31T23:42:03.441Z,99.90
2018-07-31T23:44:09.174Z,99.90
2018-07-31T23:48:18.478Z,99.90
2018-07-31T23:50:23.485Z,99.90
2018-07-31T23:52:28.719Z,99.90
2018-07-31T23:54:33.670Z,99.90
2018-07-31T23:56:38.738Z,99.90
2018-07-31T23:58:43.790Z,99.90
